15°C Temp
14°C Dewpoint
94% Humidity
Temperature
3 KM/H
2 MPH
2 KTS
Calm
Due North

Wind Speed
Misty
Conditions
Pressure 1019.92 (hPa) - 30.12 (in)
Visibility 3.7 (mi) - 6.0 (km)

Current Conditions
LGAV
Location 12(km)
Metar :LGAV 200050Z VRB02KT 6000 3000N BR FEW013 SCT018 15/14 Q1020 NOSIG
Sun 20th October 03:50 am

Airport
  Metar Aviation API Data Provided by https://www.checkwx.com/ PHP scripts by weather34.com ©2019